Time;durP1;ratioP1;P1;durP2;ratioP2;P2;SDS_P1;SDS_P2;PMS_P1;PMS_P2;Temp;Humidity;BMP_temperature;BMP_pressure;BME280_temperature;BME280_humidity;BME280_pressure;Samples;Min_cycle;Max_cycle;Signal;HPM_P1;HPM_P2
2021/12/15 00:00:50;;;;;;;75.87;43.40;;;9.70;99.90;;;;;;5071856;28;20492;-69
2021/12/15 00:03:16;;;;;;;69.87;39.20;;;9.80;99.90;;;;;;5072309;28;20501;-69
2021/12/15 00:05:44;;;;;;;76.67;44.77;;;;;;;;;;5072244;28;20492;-69
2021/12/15 00:08:11;;;;;;;75.07;43.73;;;9.70;99.90;;;;;;5071956;28;20149;-70
2021/12/15 00:10:39;;;;;;;68.27;39.00;;;10.00;99.90;;;;;;5072243;28;20017;-69
2021/12/15 00:13:05;;;;;;;75.13;40.37;;;9.80;99.90;;;;;;5071537;28;20021;-69
2021/12/15 00:15:31;;;;;;;74.17;43.90;;;9.80;99.90;;;;;;5071546;28;20029;-69
2021/12/15 00:17:58;;;;;;;75.87;45.03;;;9.70;99.90;;;;;;5051951;28;20029;-69
2021/12/15 00:20:24;;;;;;;81.60;46.00;;;9.80;99.90;;;;;;5050626;28;20492;-69
2021/12/15 00:22:52;;;;;;;77.13;44.00;;;9.50;99.90;;;;;;5050353;28;20033;-69
2021/12/15 00:25:22;;;;;;;90.10;48.07;;;9.70;99.90;;;;;;5051839;28;20041;-69
2021/12/15 00:27:47;;;;;;;74.10;42.27;;;9.70;99.90;;;;;;5051569;28;20097;-69
2021/12/15 00:30:13;;;;;;;73.93;40.10;;;9.60;99.90;;;;;;5068601;28;20094;-69
2021/12/15 00:32:39;;;;;;;75.60;41.47;;;9.60;99.90;;;;;;5071975;28;20048;-69
2021/12/15 00:35:06;;;;;;;88.07;45.87;;;9.50;99.90;;;;;;5071566;28;20031;-69
2021/12/15 00:37:31;;;;;;;68.63;40.73;;;10.10;99.90;;;;;;5072084;28;20366;-69
2021/12/15 00:39:57;;;;;;;70.07;41.43;;;9.70;99.90;;;;;;5071569;28;20036;-69
2021/12/15 00:42:23;;;;;;;71.47;41.10;;;;;;;;;;5071120;28;20481;-69
2021/12/15 00:44:48;;;;;;;71.90;39.50;;;;;;;;;;5058412;28;20109;-69
2021/12/15 00:47:14;;;;;;;85.23;46.43;;;9.80;99.90;;;;;;5051127;28;20029;-69
2021/12/15 00:49:40;;;;;;;93.53;46.77;;;9.70;99.90;;;;;;5051699;28;20100;-69
2021/12/15 00:52:07;;;;;;;76.97;42.53;;;9.80;99.90;;;;;;5051309;28;20122;-69
2021/12/15 00:54:34;;;;;;;76.70;44.47;;;9.80;99.90;;;;;;5051714;28;20430;-69
2021/12/15 00:57:00;;;;;;;74.97;41.33;;;9.70;99.90;;;;;;5050567;28;20461;-69
2021/12/15 00:59:26;;;;;;;69.20;39.23;;;9.80;99.90;;;;;;5061761;28;20036;-69
2021/12/15 01:01:53;;;;;;;78.40;43.70;;;9.80;99.90;;;;;;5071096;28;20040;-69
2021/12/15 01:04:21;;;;;;;79.87;45.50;;;9.70;99.90;;;;;;5071255;28;20020;-69
2021/12/15 01:06:51;;;;;;;83.53;44.03;;;9.80;99.90;;;;;;5071393;28;20089;-69
2021/12/15 01:09:21;;;;;;;73.67;43.67;;;9.60;99.90;;;;;;5071269;28;20040;-69
2021/12/15 01:20:29;;;;;;;85.63;47.73;;;9.50;99.90;;;;;;5050227;28;20504;-69
2021/12/15 01:22:59;;;;;;;82.93;47.13;;;10.10;99.90;;;;;;5050535;28;20025;-69
2021/12/15 01:25:33;;;;;;;84.90;45.50;;;9.80;99.90;;;;;;5050540;28;20111;-69
2021/12/15 01:27:59;;;;;;;82.93;43.93;;;10.00;99.90;;;;;;5050628;28;20536;-69
2021/12/15 01:30:29;;;;;;;78.30;45.20;;;9.70;99.90;;;;;;5068934;28;20056;-69
2021/12/15 01:32:57;;;;;;;83.03;43.40;;;9.70;99.90;;;;;;5070605;28;20389;-69
2021/12/15 01:35:23;;;;;;;81.50;45.87;;;9.70;99.90;;;;;;5070760;28;20050;-69
2021/12/15 01:37:50;;;;;;;76.70;40.67;;;9.90;99.90;;;;;;5070794;28;20048;-69
2021/12/15 01:40:28;;;;;;;76.83;44.70;;;9.70;99.90;;;;;;5068653;28;20533;-69
2021/12/15 01:42:53;;;;;;;75.77;43.70;;;9.70;99.90;;;;;;5070427;28;20119;-69
2021/12/15 01:48:08;;;;;;;92.20;51.03;;;9.80;99.90;;;;;;5070243;28;20035;-69
2021/12/15 01:50:34;;;;;;;84.80;42.93;;;9.70;99.90;;;;;;5070568;28;20025;-69
2021/12/15 01:53:00;;;;;;;90.47;48.60;;;9.80;99.90;;;;;;5069999;28;20027;-69
2021/12/15 01:55:26;;;;;;;88.90;46.90;;;9.80;99.90;;;;;;5069932;28;20025;-69
2021/12/15 01:57:53;;;;;;;82.43;48.50;;;9.60;99.90;;;;;;5070103;28;20029;-69
2021/12/15 02:00:32;;;;;;;96.00;51.17;;;9.80;99.90;;;;;;5060570;28;20616;-69
2021/12/15 02:02:58;;;;;;;110.20;52.47;;;;;;;;;;5064261;28;20021;-69
2021/12/15 02:05:26;;;;;;;97.07;49.17;;;9.70;99.90;;;;;;5050402;28;20063;-69
2021/12/15 02:07:52;;;;;;;91.20;50.30;;;9.80;99.90;;;;;;5049919;28;20435;-69
2021/12/15 02:10:21;;;;;;;102.77;52.87;;;9.90;99.90;;;;;;5048261;28;20033;-69
2021/12/15 02:12:47;;;;;;;92.40;51.10;;;9.80;99.90;;;;;;5051199;28;20021;-69
2021/12/15 02:15:20;;;;;;;99.13;50.53;;;9.60;99.90;;;;;;5049782;28;20502;-69
2021/12/15 02:17:46;;;;;;;90.27;48.93;;;9.60;99.90;;;;;;5050037;28;20062;-69
2021/12/15 02:20:14;;;;;;;85.97;45.97;;;9.80;99.90;;;;;;5049342;28;20537;-69
2021/12/15 02:22:40;;;;;;;95.17;48.20;;;;;;;;;;5049464;28;20029;-69
2021/12/15 02:25:10;;;;;;;90.67;46.43;;;9.80;99.90;;;;;;5049324;28;20060;-69
2021/12/15 02:27:36;;;;;;;90.50;48.60;;;9.80;99.90;;;;;;5049982;28;20070;-70
2021/12/15 02:30:22;;;;;;;76.43;40.53;;;9.80;99.90;;;;;;5068531;28;20036;-69
2021/12/15 02:38:35;;;;;;;69.70;40.73;;;9.90;99.90;;;;;;5027093;28;20028;-69
2021/12/15 02:41:09;;;;;;;73.00;40.78;;;9.80;99.90;;;;;;5026751;28;20526;-69
2021/12/15 02:43:35;;;;;;;79.20;42.67;;;9.70;99.90;;;;;;5014328;28;20482;-69
2021/12/15 02:46:01;;;;;;;84.30;43.20;;;9.80;99.90;;;;;;5026775;28;20049;-69
2021/12/15 02:48:27;;;;;;;74.90;41.17;;;9.30;99.90;;;;;;5027375;28;20021;-69
2021/12/15 02:50:52;;;;;;;82.77;41.63;;;9.80;99.90;;;;;;5026952;28;20030;-69
2021/12/15 02:53:18;;;;;;;92.43;45.33;;;9.70;99.90;;;;;;5026401;28;20049;-69
2021/12/15 02:55:44;;;;;;;78.37;43.27;;;9.80;99.90;;;;;;5025315;28;20033;-69
2021/12/15 02:58:10;;;;;;;84.20;44.83;;;9.70;99.90;;;;;;5022165;28;20177;-69
2021/12/15 03:01:03;;;;;;;78.43;41.13;;;9.70;99.90;;;;;;5007323;28;20395;-69
2021/12/15 03:06:16;;;;;;;76.10;39.43;;;;;;;;;;5006503;28;20181;-69
2021/12/15 03:16:46;;;;;;;74.80;39.63;;;9.50;99.90;;;;;;5051711;28;20044;-69
2021/12/15 03:19:12;;;;;;;80.77;40.53;;;9.60;99.90;;;;;;5048872;28;20108;-69
2021/12/15 03:21:38;;;;;;;84.47;44.80;;;9.70;99.90;;;;;;5048550;28;20086;-69
2021/12/15 03:24:15;;;;;;;79.40;42.47;;;9.60;99.90;;;;;;5048630;28;20103;-69
2021/12/15 03:26:52;;;;;;;74.00;41.87;;;9.70;99.90;;;;;;5049052;28;20017;-69
2021/12/15 03:37:34;;;;;;;77.93;40.90;;;9.70;99.90;;;;;;5069017;28;20032;-69
2021/12/15 03:40:15;;;;;;;76.10;40.10;;;9.30;99.90;;;;;;5068510;28;20037;-69
2021/12/15 03:42:46;;;;;;;84.17;46.20;;;9.70;99.90;;;;;;5068971;28;20378;-69
2021/12/15 03:45:19;;;;;;;85.43;43.10;;;9.70;99.90;;;;;;5048560;28;20028;-69
2021/12/15 03:47:48;;;;;;;94.47;46.33;;;9.80;99.90;;;;;;5048678;28;20021;-69
2021/12/15 03:50:17;;;;;;;82.27;43.53;;;9.80;99.90;;;;;;5048066;28;20036;-69
2021/12/15 03:52:48;;;;;;;88.17;44.60;;;9.70;99.90;;;;;;5048817;28;20040;-69
2021/12/15 03:55:15;;;;;;;82.70;42.63;;;9.70;99.90;;;;;;5048526;28;20028;-69
2021/12/15 03:57:40;;;;;;;87.13;43.20;;;9.80;99.90;;;;;;5048576;28;20095;-69
2021/12/15 04:00:08;;;;;;;83.57;43.93;;;9.60;99.90;;;;;;5065475;28;20044;-69
2021/12/15 04:02:34;;;;;;;84.43;42.10;;;9.60;99.90;;;;;;5068511;28;20036;-69
2021/12/15 04:05:00;;;;;;;79.60;42.50;;;9.80;99.90;;;;;;5067715;28;20036;-69
2021/12/15 04:07:26;;;;;;;82.67;42.70;;;;;;;;;;5068746;28;20496;-69
2021/12/15 04:09:53;;;;;;;76.07;40.33;;;9.80;99.90;;;;;;5068252;28;20033;-69
2021/12/15 04:12:19;;;;;;;82.90;41.77;;;9.80;99.90;;;;;;5068576;28;20036;-69
2021/12/15 04:14:54;;;;;;;85.30;42.70;;;9.80;99.90;;;;;;5052051;28;20029;-69
2021/12/15 04:17:29;;;;;;;79.23;41.30;;;9.60;99.90;;;;;;5048543;28;20043;-69
2021/12/15 04:19:58;;;;;;;84.90;43.13;;;9.70;99.90;;;;;;5047686;28;20095;-69
2021/12/15 04:22:25;;;;;;;83.37;41.23;;;9.60;99.90;;;;;;5050346;28;20041;-69
2021/12/15 04:24:51;;;;;;;79.33;39.07;;;9.70;99.90;;;;;;5051596;28;20076;-69
2021/12/15 04:27:17;;;;;;;78.93;41.30;;;9.60;99.90;;;;;;5052022;28;20048;-69
2021/12/15 04:29:44;;;;;;;80.97;39.93;;;;;;;;;;5067621;28;20438;-69
2021/12/15 04:32:17;;;;;;;75.67;40.37;;;10.10;99.90;;;;;;5071604;28;20115;-69
2021/12/15 04:34:43;;;;;;;79.90;40.05;;;9.80;99.90;;;;;;5071559;28;20055;-69
2021/12/15 04:37:09;;;;;;;74.63;37.43;;;9.80;99.90;;;;;;5070063;28;20532;-69
2021/12/15 04:39:35;;;;;;;73.53;38.47;;;;;;;;;;5071934;28;20028;-69
2021/12/15 04:42:01;;;;;;;76.27;37.97;;;9.50;99.90;;;;;;5071195;28;20028;-69
2021/12/15 04:44:30;;;;;;;82.03;41.97;;;9.70;99.90;;;;;;5058345;28;20035;-69
2021/12/15 04:47:07;;;;;;;77.40;40.67;;;9.80;99.90;;;;;;5051416;28;20107;-69
2021/12/15 04:49:39;;;;;;;78.73;40.30;;;8.40;99.90;;;;;;5051421;28;20029;-69
2021/12/15 04:52:09;;;;;;;77.83;39.03;;;9.80;99.90;;;;;;5051310;28;20040;-69
2021/12/15 04:54:35;;;;;;;84.13;42.47;;;9.80;99.90;;;;;;5050259;28;20482;-69
2021/12/15 04:57:01;;;;;;;76.07;39.37;;;9.60;99.90;;;;;;5051151;28;20063;-69
2021/12/15 04:59:27;;;;;;;76.13;39.93;;;9.80;99.90;;;;;;5051593;28;20033;-69
2021/12/15 05:01:53;;;;;;;85.40;42.20;;;;;;;;;;5067964;28;20098;-69
2021/12/15 05:04:19;;;;;;;84.63;41.63;;;9.70;99.90;;;;;;5070953;28;20834;-69
2021/12/15 05:06:45;;;;;;;78.07;40.10;;;10.40;99.90;;;;;;5062687;28;20021;-69
2021/12/15 05:09:11;;;;;;;77.57;41.40;;;9.60;99.90;;;;;;5050907;28;20051;-69
2021/12/15 05:11:37;;;;;;;81.53;42.60;;;9.90;99.90;;;;;;5051310;28;20040;-69
2021/12/15 05:14:04;;;;;;;80.63;40.93;;;9.70;99.90;;;;;;5057364;28;20028;-69
2021/12/15 05:16:29;;;;;;;79.90;43.37;;;9.70;99.90;;;;;;5071482;28;20342;-69
2021/12/15 05:18:55;;;;;;;80.00;41.33;;;9.70;99.90;;;;;;5070605;28;20032;-69
2021/12/15 05:21:23;;;;;;;80.13;40.07;;;9.80;99.90;;;;;;5071073;28;20028;-69
2021/12/15 05:23:55;;;;;;;75.10;41.27;;;9.70;99.90;;;;;;5070799;28;20017;-69
2021/12/15 05:26:21;;;;;;;86.10;43.17;;;9.80;99.90;;;;;;5071023;28;20054;-69
2021/12/15 05:28:47;;;;;;;70.10;38.47;;;9.70;99.90;;;;;;5066816;28;20092;-69
2021/12/15 05:31:13;;;;;;;74.83;40.27;;;;;;;;;;5049823;28;20159;-69
2021/12/15 05:33:39;;;;;;;82.40;43.40;;;9.70;99.90;;;;;;5050280;28;20033;-69
2021/12/15 05:36:05;;;;;;;81.63;42.23;;;9.80;99.90;;;;;;5050059;28;20363;-69
2021/12/15 05:38:31;;;;;;;80.20;41.43;;;9.40;99.90;;;;;;5050871;28;20032;-69
2021/12/15 05:40:59;;;;;;;81.57;42.63;;;9.70;99.90;;;;;;5050519;28;20033;-69
2021/12/15 05:43:25;;;;;;;84.47;44.20;;;9.70;99.90;;;;;;5051531;28;20056;-69
2021/12/15 05:45:51;;;;;;;91.17;47.80;;;;;;;;;;5070002;28;20060;-69
2021/12/15 05:48:18;;;;;;;89.57;46.27;;;9.80;99.90;;;;;;5070552;28;20523;-69
2021/12/15 05:50:46;;;;;;;86.87;44.87;;;9.70;99.90;;;;;;5069066;28;20029;-69
2021/12/15 05:53:11;;;;;;;72.63;39.90;;;10.20;99.90;;;;;;5068706;28;20112;-69
2021/12/15 05:55:39;;;;;;;75.07;40.77;;;9.90;99.90;;;;;;5051535;28;20112;-69
2021/12/15 05:58:05;;;;;;;80.40;42.50;;;9.80;99.90;;;;;;5050035;28;20036;-69
2021/12/15 06:00:40;;;;;;;80.60;41.23;;;9.80;99.90;;;;;;5049885;28;20033;-69
2021/12/15 06:03:07;;;;;;;77.90;39.30;;;9.80;99.90;;;;;;5049835;28;20104;-69
2021/12/15 06:05:34;;;;;;;82.27;42.60;;;9.70;99.90;;;;;;5050389;28;20143;-69
2021/12/15 06:08:00;;;;;;;72.47;40.10;;;9.80;99.90;;;;;;5049812;28;20066;-69
2021/12/15 06:10:28;;;;;;;76.33;40.40;;;9.80;99.90;;;;;;5051453;28;20021;-69
2021/12/15 06:12:55;;;;;;;80.90;40.30;;;9.70;99.90;;;;;;5063591;28;20094;-69
2021/12/15 06:15:24;;;;;;;84.83;43.13;;;9.80;99.90;;;;;;5069020;28;20066;-69
2021/12/15 06:17:59;;;;;;;79.33;41.57;;;8.50;99.90;;;;;;5062481;28;20020;-69
2021/12/15 06:20:25;;;;;;;90.57;44.57;;;9.80;99.90;;;;;;5069167;28;20047;-69
2021/12/15 06:22:53;;;;;;;97.63;49.70;;;;;;;;;;5069383;28;20028;-69
2021/12/15 06:25:23;;;;;;;90.27;46.27;;;9.80;99.90;;;;;;5068708;28;20072;-69
2021/12/15 06:27:48;;;;;;;83.87;42.67;;;9.80;99.90;;;;;;5069400;28;20032;-69
2021/12/15 06:30:14;;;;;;;75.90;41.17;;;;;;;;;;5068559;28;20112;-69
2021/12/15 06:32:41;;;;;;;80.00;44.63;;;9.90;99.90;;;;;;5069632;28;20031;-69
2021/12/15 06:35:07;;;;;;;89.33;43.10;;;9.80;99.90;;;;;;5069068;28;20028;-69
2021/12/15 06:37:33;;;;;;;85.00;44.43;;;9.80;99.90;;;;;;5068097;28;20486;-69
2021/12/15 06:39:59;;;;;;;82.43;42.70;;;9.80;99.90;;;;;;5067737;28;20032;-69
2021/12/15 06:42:24;;;;;;;86.57;46.27;;;9.90;99.90;;;;;;5069641;28;20032;-70
2021/12/15 06:44:50;;;;;;;90.30;42.87;;;9.80;99.90;;;;;;5068427;28;20074;-69
2021/12/15 06:57:29;;;;;;;;;;;9.90;99.90;;;;;;5054034;28;20039;-69
2021/12/15 06:58:17;;;;;;;74.95;39.25;;;9.80;99.90;;;;;;5068995;28;20460;-69
2021/12/15 07:00:49;;;;;;;80.73;40.40;;;9.70;99.90;;;;;;5069151;28;20056;-71
2021/12/15 07:03:17;;;;;;;91.50;46.57;;;10.20;99.90;;;;;;5069094;28;20541;-69
2021/12/15 07:05:43;;;;;;;81.17;38.90;;;10.10;99.90;;;;;;5056987;28;20059;-69
2021/12/15 07:08:11;;;;;;;98.00;47.43;;;10.00;99.90;;;;;;5048789;28;20055;-69
2021/12/15 07:10:41;;;;;;;85.07;41.23;;;9.90;99.90;;;;;;5049297;28;20028;-69
2021/12/15 07:13:07;;;;;;;81.07;40.73;;;9.90;99.90;;;;;;5048571;28;20757;-69
2021/12/15 07:15:34;;;;;;;86.43;42.97;;;10.00;99.90;;;;;;5054841;28;20029;-69
2021/12/15 07:18:04;;;;;;;76.40;40.07;;;;;;;;;;5068634;28;20183;-69
2021/12/15 07:20:40;;;;;;;78.73;38.80;;;10.00;99.90;;;;;;5066279;28;20094;-69
2021/12/15 07:23:14;;;;;;;78.63;36.67;;;9.90;99.90;;;;;;5060410;28;20036;-68
2021/12/15 07:25:41;;;;;;;;;;;10.20;99.90;;;;;;5049177;28;20138;-69
2021/12/15 07:28:07;;;;;;;84.47;40.20;;;10.00;99.90;;;;;;5050716;28;19908;-69
2021/12/15 07:30:35;;;;;;;94.77;43.93;;;9.90;99.90;;;;;;5049004;28;20025;-69
2021/12/15 07:33:01;;;;;;;88.33;44.63;;;10.10;99.90;;;;;;5048143;28;20044;-69
2021/12/15 07:35:27;;;;;;;93.70;43.17;;;10.00;99.90;;;;;;5048951;28;20088;-69
2021/12/15 07:37:53;;;;;;;94.37;42.83;;;9.80;99.90;;;;;;5058667;28;20021;-69
2021/12/15 07:40:21;;;;;;;95.97;44.63;;;10.00;99.90;;;;;;5054766;28;20036;-69
2021/12/15 07:42:57;;;;;;;90.60;43.60;;;10.00;99.90;;;;;;5068285;28;20035;-70
2021/12/15 07:45:25;;;;;;;96.60;47.53;;;10.00;99.90;;;;;;5068689;28;20560;-69
2021/12/15 07:47:57;;;;;;;95.20;43.17;;;10.10;99.90;;;;;;5068492;28;20098;-69
2021/12/15 07:50:24;;;;;;;103.97;45.67;;;9.90;99.90;;;;;;5061545;28;20033;-69
2021/12/15 07:52:51;;;;;;;96.27;42.40;;;10.00;99.90;;;;;;5055857;28;20066;-69
2021/12/15 07:55:17;;;;;;;112.80;47.13;;;10.00;99.90;;;;;;5068417;28;20054;-69
2021/12/15 07:57:43;;;;;;;104.87;46.93;;;9.90;99.90;;;;;;5069465;28;20367;-69
2021/12/15 08:00:10;;;;;;;98.27;44.97;;;10.00;99.90;;;;;;5069174;28;20103;-69
2021/12/15 08:02:36;;;;;;;100.07;44.00;;;9.50;99.90;;;;;;5052444;28;20069;-69
2021/12/15 08:05:02;;;;;;;108.53;44.93;;;9.70;99.90;;;;;;5053199;28;20063;-69
2021/12/15 08:07:28;;;;;;;91.57;39.27;;;9.90;99.90;;;;;;5061559;28;20021;-69
2021/12/15 08:09:53;;;;;;;95.27;41.83;;;10.10;99.90;;;;;;5062414;28;20373;-68
2021/12/15 08:12:19;;;;;;;99.27;44.23;;;10.10;99.90;;;;;;5061699;28;20024;-69
2021/12/15 08:14:45;;;;;;;105.37;44.47;;;;;;;;;;5064088;28;20024;-69
2021/12/15 08:17:11;;;;;;;93.53;41.33;;;9.90;99.90;;;;;;5068468;28;20025;-69
2021/12/15 08:19:37;;;;;;;104.47;42.93;;;;;;;;;;5057384;28;20445;-68
2021/12/15 08:22:03;;;;;;;116.73;47.60;;;;;;;;;;5063907;28;20136;-69
2021/12/15 08:24:29;;;;;;;94.27;39.27;;;;;;;;;;5057133;28;20087;-68
2021/12/15 08:26:55;;;;;;;89.03;39.33;;;10.10;99.90;;;;;;5063863;28;20036;-68
2021/12/15 08:29:21;;;;;;;97.87;42.30;;;;;;;;;;5062346;28;20024;-68
2021/12/15 08:31:46;;;;;;;115.33;49.07;;;9.80;99.90;;;;;;5063566;28;20061;-69
2021/12/15 08:34:12;;;;;;;115.50;46.30;;;;;;;;;;5056598;28;20063;-68
2021/12/15 08:36:40;;;;;;;100.30;43.70;;;10.00;99.90;;;;;;5051696;28;20025;-69
2021/12/15 08:39:07;;;;;;;108.00;47.03;;;10.10;99.90;;;;;;5051399;28;20100;-68
2021/12/15 08:41:33;;;;;;;107.30;47.37;;;10.10;99.90;;;;;;5060117;28;20033;-68
2021/12/15 08:44:00;;;;;;;114.77;49.63;;;10.10;99.90;;;;;;5069260;28;20393;-69
2021/12/15 08:46:30;;;;;;;103.17;45.47;;;9.80;99.90;;;;;;5064892;28;20523;-68
2021/12/15 08:48:58;;;;;;;97.70;47.73;;;10.10;99.90;;;;;;5071097;28;20024;-68
2021/12/15 08:51:26;;;;;;;102.83;43.57;;;10.00;99.90;;;;;;5070846;28;20027;-69
2021/12/15 08:53:55;;;;;;;100.27;44.87;;;10.20;99.90;;;;;;5062533;28;20465;-70
2021/12/15 08:56:20;;;;;;;105.83;46.93;;;10.20;99.90;;;;;;5063513;28;20068;-69
2021/12/15 08:58:46;;;;;;;102.90;45.53;;;9.80;99.90;;;;;;5060990;28;20103;-68
2021/12/15 09:01:12;;;;;;;111.13;48.83;;;10.10;99.90;;;;;;5056591;28;20493;-69
2021/12/15 09:03:41;;;;;;;127.17;50.17;;;;;;;;;;5049936;28;20025;-69
2021/12/15 09:06:06;;;;;;;99.57;45.73;;;9.90;99.90;;;;;;5050849;28;20031;-69
2021/12/15 09:08:32;;;;;;;112.93;45.70;;;;;;;;;;5059369;28;20029;-69
2021/12/15 09:11:01;;;;;;;115.77;46.87;;;10.10;99.90;;;;;;5064619;28;20024;-68
2021/12/15 09:13:30;;;;;;;96.00;44.10;;;10.30;99.90;;;;;;5055232;28;20025;-69
2021/12/15 09:15:57;;;;;;;108.30;47.00;;;10.40;99.90;;;;;;5059413;28;20377;-69
2021/12/15 09:18:23;;;;;;;116.93;49.23;;;10.30;99.90;;;;;;5062135;28;20493;-68
2021/12/15 09:20:49;;;;;;;130.07;52.10;;;9.80;99.90;;;;;;5070230;28;20032;-69
2021/12/15 09:23:17;;;;;;;104.40;47.17;;;10.30;99.90;;;;;;5052735;28;20033;-69
2021/12/15 09:25:43;;;;;;;117.37;48.60;;;10.20;99.90;;;;;;5050828;28;20049;-69
2021/12/15 09:28:10;;;;;;;103.63;46.43;;;10.50;99.90;;;;;;5058116;28;20055;-69
2021/12/15 09:30:43;;;;;;;105.83;47.00;;;10.30;99.90;;;;;;5067985;28;20112;-69
2021/12/15 09:33:17;;;;;;;109.32;48.35;;;10.80;99.90;;;;;;5070544;28;20028;-69
2021/12/15 09:35:42;;;;;;;99.60;43.88;;;10.40;99.90;;;;;;5070413;28;20076;-69
2021/12/15 09:38:08;;;;;;;117.87;50.83;;;;;;;;;;5069840;28;20115;-69
2021/12/15 09:40:35;;;;;;;117.53;50.87;;;10.40;99.90;;;;;;5065429;28;20028;-68
2021/12/15 09:43:03;;;;;;;114.60;46.27;;;10.50;99.90;;;;;;5065695;28;20030;-69
2021/12/15 10:19:55;;;;;;;99.73;48.70;;;10.20;99.90;;;;;;5051540;28;20481;-69
2021/12/15 10:22:42;;;;;;;101.53;51.07;;;10.60;99.90;;;;;;5041567;28;20044;-69
2021/12/15 10:25:27;;;;;;;96.07;47.47;;;11.10;99.90;;;;;;5049962;28;20052;-68
2021/12/15 10:28:04;;;;;;;103.37;49.37;;;10.50;99.90;;;;;;5054638;28;20038;-69
2021/12/15 10:30:39;;;;;;;97.97;49.80;;;10.60;99.90;;;;;;5062702;28;20488;-68
2021/12/15 10:33:10;;;;;;;102.27;49.43;;;10.90;99.90;;;;;;5058001;28;20037;-69
2021/12/15 10:35:40;;;;;;;97.13;48.23;;;10.70;99.90;;;;;;5068696;28;20104;-68
2021/12/15 10:38:18;;;;;;;93.73;46.90;;;10.90;99.90;;;;;;5059692;28;20480;-68
2021/12/15 10:40:58;;;;;;;99.57;50.70;;;10.80;99.90;;;;;;5052757;28;20127;-69
2021/12/15 10:43:29;;;;;;;96.23;49.00;;;10.80;99.90;;;;;;5052765;28;20055;-68
2021/12/15 10:45:59;;;;;;;93.37;45.63;;;10.50;99.90;;;;;;5058891;28;20029;-68
2021/12/15 10:48:37;;;;;;;91.57;47.17;;;10.80;99.90;;;;;;5048615;28;20036;-68
2021/12/15 10:51:22;;;;;;;90.83;47.53;;;10.80;99.90;;;;;;5053545;28;20066;-68
2021/12/15 10:53:48;;;;;;;95.57;49.53;;;10.70;99.90;;;;;;5061930;28;20028;-69
2021/12/15 10:56:18;;;;;;;87.40;45.27;;;10.80;99.90;;;;;;5054432;28;20113;-69
2021/12/15 10:58:50;;;;;;;87.03;47.43;;;10.80;99.90;;;;;;5057496;28;20016;-68
2021/12/15 11:01:43;;;;;;;83.27;46.23;;;11.10;99.90;;;;;;5060529;28;20170;-69
2021/12/15 11:04:43;;;;;;;89.73;51.00;;;11.20;99.90;;;;;;5066350;28;20021;-69
2021/12/15 11:07:18;;;;;;;92.47;49.60;;;11.20;99.90;;;;;;5050157;28;20033;-69
2021/12/15 11:09:48;;;;;;;85.23;47.63;;;11.10;99.90;;;;;;5060957;28;20024;-69
2021/12/15 11:12:19;;;;;;;82.60;48.23;;;11.20;99.90;;;;;;5060426;28;20028;-68
2021/12/15 11:14:48;;;;;;;82.80;45.27;;;11.20;99.90;;;;;;5062306;28;20028;-69
2021/12/15 11:18:06;;;;;;;80.67;44.40;;;11.00;99.90;;;;;;5054235;28;20012;-69
2021/12/15 11:20:40;;;;;;;80.33;45.13;;;11.30;99.90;;;;;;5036574;28;20028;-69
2021/12/15 11:23:08;;;;;;;78.67;45.77;;;11.20;99.90;;;;;;5057121;28;20083;-69
2021/12/15 11:25:36;;;;;;;78.17;45.97;;;11.30;99.90;;;;;;5059837;28;20076;-69
2021/12/15 11:28:08;;;;;;;79.80;44.97;;;11.30;99.90;;;;;;5067946;28;20040;-69
2021/12/15 11:30:45;;;;;;;76.03;42.87;;;11.10;99.90;;;;;;5056917;28;20021;-69
2021/12/15 11:33:15;;;;;;;74.40;44.57;;;11.30;99.90;;;;;;5070826;28;20031;-69
2021/12/15 11:36:00;;;;;;;73.77;43.13;;;11.30;99.90;;;;;;5069226;28;20031;-69
2021/12/15 11:38:32;;;;;;;70.97;45.83;;;11.30;99.90;;;;;;5064012;28;20542;-69
2021/12/15 11:40:58;;;;;;;74.37;44.77;;;;;;;;;;5064348;28;20090;-68
2021/12/15 11:43:36;;;;;;;69.37;43.70;;;11.30;99.90;;;;;;5064224;28;20036;-69
2021/12/15 11:46:13;;;;;;;74.67;43.83;;;11.30;99.90;;;;;;5071693;28;20020;-69
2021/12/15 11:48:39;;;;;;;63.87;40.80;;;11.40;99.90;;;;;;5072187;28;20067;-69
2021/12/15 11:51:06;;;;;;;70.63;44.87;;;11.30;99.90;;;;;;5052370;28;20043;-69
2021/12/15 11:53:40;;;;;;;67.50;43.15;;;11.20;99.90;;;;;;5060786;28;20044;-69
2021/12/15 11:56:14;;;;;;;66.68;43.17;;;11.10;99.90;;;;;;5062820;28;20502;-69
2021/12/15 11:58:40;;;;;;;67.60;43.77;;;11.30;99.90;;;;;;5058471;28;20071;-69
2021/12/15 12:01:08;;;;;;;62.90;41.07;;;;;;;;;;5058730;28;20489;-69
2021/12/15 12:03:34;;;;;;;59.63;39.58;;;11.30;99.90;;;;;;5066153;28;20017;-69
2021/12/15 12:06:01;;;;;;;71.17;41.57;;;10.90;99.90;;;;;;5060858;28;20036;-69
2021/12/15 12:08:27;;;;;;;68.70;43.23;;;11.20;99.90;;;;;;5052445;28;20021;-68
2021/12/15 12:10:53;;;;;;;65.50;42.03;;;11.50;99.90;;;;;;5060811;28;20133;-69
2021/12/15 12:13:27;;;;;;;66.37;44.30;;;11.20;99.90;;;;;;5064923;28;20127;-68
2021/12/15 12:15:57;;;;;;;61.33;38.83;;;11.30;99.90;;;;;;5051794;28;20028;-69
2021/12/15 12:18:26;;;;;;;62.30;41.60;;;11.50;99.90;;;;;;5052775;28;20032;-69
2021/12/15 12:21:01;;;;;;;61.70;42.87;;;11.40;99.90;;;;;;5051715;28;20115;-69
2021/12/15 12:23:29;;;;;;;61.80;39.87;;;11.60;99.90;;;;;;5054666;28;20033;-69
2021/12/15 12:25:58;;;;;;;57.90;38.00;;;11.30;99.90;;;;;;5060362;28;20048;-69
2021/12/15 12:28:27;;;;;;;58.78;40.67;;;11.50;99.90;;;;;;5070860;28;20040;-69
2021/12/15 12:31:02;;;;;;;59.47;40.33;;;11.50;99.90;;;;;;5051632;28;20054;-69
2021/12/15 12:33:29;;;;;;;58.30;38.23;;;11.60;99.90;;;;;;5058327;28;20111;-69
2021/12/15 12:36:05;;;;;;;51.80;37.47;;;11.50;99.90;;;;;;5063333;28;20481;-69
2021/12/15 12:38:34;;;;;;;54.95;37.88;;;11.50;99.90;;;;;;5055946;28;20025;-69
2021/12/15 12:41:03;;;;;;;53.27;37.80;;;11.50;99.90;;;;;;5065979;28;20460;-69
2021/12/15 12:43:53;;;;;;;50.03;34.07;;;11.40;99.90;;;;;;5070729;28;20020;-69
2021/12/15 12:46:32;;;;;;;48.10;33.13;;;11.70;99.90;;;;;;5061167;28;20040;-69
2021/12/15 13:00:34;;;;;;;51.70;36.42;;;11.60;99.90;;;;;;5069285;28;20140;-69
2021/12/15 13:03:38;;;;;;;52.75;36.33;;;11.50;99.90;;;;;;5065107;28;20044;-69
2021/12/15 13:06:07;;;;;;;46.20;33.75;;;11.70;99.90;;;;;;5043430;28;20406;-69
2021/12/15 13:08:39;;;;;;;49.75;35.05;;;11.60;99.90;;;;;;5052932;28;20021;-69
2021/12/15 13:11:17;;;;;;;49.47;35.28;;;11.50;99.90;;;;;;5050793;28;20021;-69
2021/12/15 13:13:49;;;;;;;47.63;34.73;;;11.40;99.90;;;;;;5059181;28;20092;-69
2021/12/15 13:16:24;;;;;;;49.60;36.27;;;12.60;99.90;;;;;;5063183;28;20087;-69
2021/12/15 13:18:55;;;;;;;45.07;33.73;;;11.40;99.90;;;;;;5068952;28;20480;-69
2021/12/15 13:21:45;;;;;;;48.77;35.43;;;11.50;99.90;;;;;;5070700;28;20036;-69
2021/12/15 13:30:22;;;;;;;45.47;33.63;;;11.20;99.90;;;;;;5061434;28;20116;-69
2021/12/15 13:32:48;;;;;;;46.27;34.07;;;11.30;99.90;;;;;;5053964;28;20086;-69
2021/12/15 13:35:25;;;;;;;39.83;31.40;;;11.30;99.90;;;;;;5055908;28;20768;-68
2021/12/15 13:37:55;;;;;;;46.30;33.13;;;11.40;99.90;;;;;;5064256;28;20013;-69
2021/12/15 13:41:10;;;;;;;39.00;31.57;;;11.40;99.90;;;;;;5070615;28;20429;-69
2021/12/15 13:43:40;;;;;;;41.35;28.80;;;11.40;99.90;;;;;;5019937;28;20037;-69
2021/12/15 13:46:21;;;;;;;39.27;28.77;;;11.20;99.90;;;;;;5014352;28;20124;-69
2021/12/15 13:49:04;;;;;;;34.97;27.33;;;11.30;99.90;;;;;;5028257;28;20037;-69
2021/12/15 13:52:07;;;;;;;36.27;27.13;;;11.40;99.90;;;;;;5017199;28;20461;-69
2021/12/15 13:54:32;;;;;;;36.73;28.17;;;11.10;99.90;;;;;;5027739;28;20077;-69
2021/12/15 13:57:13;;;;;;;33.43;26.17;;;11.20;99.90;;;;;;5026867;28;20187;-69
2021/12/15 13:59:43;;;;;;;31.37;23.63;;;11.30;99.90;;;;;;5023799;28;20087;-69
2021/12/15 14:02:09;;;;;;;32.60;24.23;;;11.30;99.90;;;;;;5008900;28;20080;-71
2021/12/15 14:04:53;;;;;;;34.13;25.40;;;11.20;99.90;;;;;;5002096;28;20076;-71
2021/12/15 14:07:28;;;;;;;;;;;11.20;99.90;;;;;;5027674;28;20506;-70
2021/12/15 14:09:54;;;;;;;32.28;24.17;;;;;;;;;;5007825;28;19909;-69
2021/12/15 14:12:50;;;;;;;27.23;22.47;;;11.20;99.90;;;;;;5011775;28;20037;-69
2021/12/15 14:15:24;;;;;;;25.97;20.57;;;11.00;99.90;;;;;;5062577;28;20116;-69
2021/12/15 14:18:09;;;;;;;29.47;20.13;;;11.20;99.90;;;;;;5067706;28;20461;-69
2021/12/15 14:21:15;;;;;;;20.97;18.30;;;11.10;99.90;;;;;;5067204;28;20078;-69
2021/12/15 14:23:41;;;;;;;27.60;19.97;;;;;;;;;;5065151;28;20040;-69
2021/12/15 14:26:23;;;;;;;25.83;18.70;;;11.10;99.90;;;;;;5061144;28;20417;-69
2021/12/15 14:28:56;;;;;;;25.83;19.23;;;10.90;99.90;;;;;;5064789;28;20376;-69
2021/12/15 14:31:26;;;;;;;21.33;17.45;;;11.00;99.90;;;;;;5064635;28;20029;-69